AirNav   Pilot Hours Calculator
 
 1032 users online  

TS50 Austinia Airport
Texas City, Texas, USA

GOING TO TEXAS CITY?


FAA INFORMATION EFFECTIVE 30 DECEMBER 2021

Location

FAA Identifier: TS50
Lat/Long: 29-25-02.8360N 094-59-53.7330W
29-25.047267N 094-59.895550W
29.4174544,-94.9982592
(estimated)
Elevation: 15 ft. / 5 m (estimated)
Variation: 06E (1985)
From city: 5 miles NW of TEXAS CITY, TX
Time zone: UTC -6 (UTC -5 during Daylight Saving Time)
Zip code: 77590

Airport Operations

Airport use: Private use. Permission required prior to landing
Activation date: 05/1979
Control tower: no
ARTCC: HOUSTON CENTER
FSS: MONTGOMERY COUNTY FLIGHT SERVICE STATION
Attendance: UNATNDD
Wind indicator: yes
Segmented circle: no

Airport Communications

WX ASOS at GLS (12 nm SE): 119.275 (409-740-9248)
WX AWOS-3 at EFD (14 nm NW): 135.575 (713-847-4430)
WX ASOS at LVJ (14 nm NW): 118.525 (281-992-1853)
WX AWOS-3PT at T41 (15 nm N): 120.275 (281-471-2206)
WX ASOS at HOU (20 nm NW): PHONE 713-847-1462

Nearby radio navigation aids

VOR radial/distance  VOR name  Freq  Var
VUHr316/11.2SCHOLES VOR/DME113.0006E
MHFr232/15.2TRINITY VOR/DME113.6007E
IAHr146/37.1HUMBLE VORTAC116.6005E

Airport Services

Runway Information

Runway N/S

Dimensions: 2150 x 100 ft. / 655 x 30 m
Surface: turf
RUNWAY N  RUNWAY S
Traffic pattern: leftleft
Obstructions: 20 ft. trees30 ft. pline

Airport Ownership and Management from official FAA records

Ownership: Privately-owned
Owner: C MICHAEL ORR
2008 TEXAS AVE
TEXAS CITY, TX 77590
Phone 409-948-3461
Manager: C MICHAEL ORR
2008 TEXAS AVE
TEXAS CITY, TX 77590
Phone 409-948-3461

Airport Operational Statistics

Aircraft based on the field: 1
Single engine airplanes: 1
    

Additional Remarks

FOR CD CTC HOUSTON ARTCC AT 281-230-5622.

Instrument Procedures

There are no published instrument procedures at TS50.

Some nearby airports with instrument procedures:

KGLS - Scholes International Airport at Galveston (12 nm SE)
KEFD - Ellington Airport (14 nm NW)
KLVJ - Pearland Regional Airport (14 nm NW)
T41 - La Porte Municipal Airport (15 nm N)
KHOU - William P Hobby Airport (20 nm NW)
 
Loc | Ops | Rwys | IFR | FBO | Links
Com | Nav | Svcs | Stats | Notes
Area around TS50 (Austinia Airport)
 
Road maps at: MapQuest Bing Google
 
Aerial photo
No photo
 
Sectional chart

 
Airport distance calculator
Flying to Austinia Airport? Find the distance to fly.

From to TS50

Sunrise and sunset
Times for 16-Jan-2022
 Local
(UTC-6)
 Zulu
(UTC)
Morning civil twilight06:5112:51
Sunrise07:1613:16
Sunset17:4323:43
Evening civil twilight18:0900:09

Current date and time
Zulu (UTC)  16-Jan-2022 19:10:19
Local (UTC-6)  16-Jan-2022 13:10:19
 
METAR
KGLS 
11nm SE 
161852Z 29011KT 10SM CLR 13/01 A3010 RMK AO2 SLP193 T01330006
KEFD 
14nm NW 
161850Z 27012G18KT 10SM CLR 11/M01 A3009
KLVJ 
14nm NW 
161853Z AUTO 30008KT 270V340 10SM CLR 11/M01 A3012 RMK AO2 SLP197 T01111006
KT41 
15nm N 
161855Z AUTO 28012KT 10SM CLR 11/00 A3010 RMK AO2 T01140004
KHOU 
20nm NW 
161853Z 28009KT 10SM CLR 13/M01 A3010 RMK AO2 SLP197 T01281006
TAF
KGLS 
11nm SE 
161720Z 1618/1718 30014KT P6SM SKC FM170100 VRB04KT P6SM SKC
KEFD 
14nm NW 
161200Z 1612/1718 30012G18KT 9999 SKC 510003 QNH3010INS BECMG 1613/1614 30009KT 9999 SKC QNH3006INS BECMG 1621/1622 VRB06KT 9999 SKC QNH3005INS TX12/1623Z TNM01/1612Z
KHOU 
20nm NW 
161720Z 1618/1718 31010KT P6SM SKC FM170000 VRB04KT P6SM SKC
NOTAMs
Click for the latest NOTAMs
NOTAMs are issued by the DoD/FAA and will open in a separate window not controlled by AirNav.

 

 
 

Would you like to see your business listed on this page?

 If your business provides an interesting product or service to pilots, flight crews, aircraft, or users of the Austinia Airport, you should consider listing it here.  To start the listing process, click on the button below
 
Add a business
 

Other Pages about Austinia Airport

Update a link
 
Copyright © AirNav, LLC. All rights reserved. Privacy Policy  Contact